sensor_id;sensor_type;location;lat;lon;timestamp;P1;durP1;ratioP1;P2;durP2;ratioP2
14056;SDS011;7103;54.300;10.180;2023-02-10T00:01:15;0.13;;;0.13;;
14056;SDS011;7103;54.300;10.180;2023-02-10T00:03:48;0.10;;;0.10;;
14056;SDS011;7103;54.300;10.180;2023-02-10T00:06:15;0.10;;;0.10;;
14056;SDS011;7103;54.300;10.180;2023-02-10T00:08:47;0.10;;;0.10;;
14056;SDS011;7103;54.300;10.180;2023-02-10T00:11:14;0.10;;;0.10;;
14056;SDS011;7103;54.300;10.180;2023-02-10T00:13:42;0.10;;;0.10;;
14056;SDS011;7103;54.300;10.180;2023-02-10T00:16:11;0.10;;;0.10;;
14056;SDS011;7103;54.300;10.180;2023-02-10T00:18:43;0.10;;;0.10;;
14056;SDS011;7103;54.300;10.180;2023-02-10T00:21:12;0.10;;;0.10;;
14056;SDS011;7103;54.300;10.180;2023-02-10T00:23:41;0.20;;;0.20;;
14056;SDS011;7103;54.300;10.180;2023-02-10T00:26:09;0.10;;;0.10;;
14056;SDS011;7103;54.300;10.180;2023-02-10T00:28:38;0.10;;;0.10;;
14056;SDS011;7103;54.300;10.180;2023-02-10T00:31:05;0.00;;;0.00;;
14056;SDS011;7103;54.300;10.180;2023-02-10T00:33:34;0.10;;;0.10;;
14056;SDS011;7103;54.300;10.180;2023-02-10T00:36:05;0.10;;;0.10;;
14056;SDS011;7103;54.300;10.180;2023-02-10T00:38:34;0.10;;;0.10;;
14056;SDS011;7103;54.300;10.180;2023-02-10T00:41:11;0.10;;;0.10;;
14056;SDS011;7103;54.300;10.180;2023-02-10T00:43:43;0.10;;;0.10;;
14056;SDS011;7103;54.300;10.180;2023-02-10T00:46:14;0.10;;;0.10;;
14056;SDS011;7103;54.300;10.180;2023-02-10T00:48:43;0.10;;;0.10;;
14056;SDS011;7103;54.300;10.180;2023-02-10T00:51:11;0.10;;;0.10;;
14056;SDS011;7103;54.300;10.180;2023-02-10T00:53:38;0.10;;;0.10;;
14056;SDS011;7103;54.300;10.180;2023-02-10T00:56:06;0.10;;;0.10;;
14056;SDS011;7103;54.300;10.180;2023-02-10T00:58:33;0.10;;;0.10;;
14056;SDS011;7103;54.300;10.180;2023-02-10T01:01:00;0.10;;;0.10;;
14056;SDS011;7103;54.300;10.180;2023-02-10T01:03:27;0.10;;;0.10;;
14056;SDS011;7103;54.300;10.180;2023-02-10T01:05:54;0.10;;;0.10;;
14056;SDS011;7103;54.300;10.180;2023-02-10T01:08:21;0.10;;;0.10;;
14056;SDS011;7103;54.300;10.180;2023-02-10T01:10:47;0.10;;;0.10;;
14056;SDS011;7103;54.300;10.180;2023-02-10T01:13:15;0.10;;;0.10;;
14056;SDS011;7103;54.300;10.180;2023-02-10T01:15:45;0.10;;;0.10;;
14056;SDS011;7103;54.300;10.180;2023-02-10T01:18:13;0.00;;;0.00;;
14056;SDS011;7103;54.300;10.180;2023-02-10T01:20:41;0.10;;;0.10;;
14056;SDS011;7103;54.300;10.180;2023-02-10T01:23:09;0.10;;;0.10;;
14056;SDS011;7103;54.300;10.180;2023-02-10T01:25:36;0.07;;;0.07;;
14056;SDS011;7103;54.300;10.180;2023-02-10T01:28:04;0.10;;;0.10;;
14056;SDS011;7103;54.300;10.180;2023-02-10T01:30:32;0.10;;;0.10;;
14056;SDS011;7103;54.300;10.180;2023-02-10T01:33:01;0.10;;;0.10;;
14056;SDS011;7103;54.300;10.180;2023-02-10T01:35:28;0.10;;;0.10;;
14056;SDS011;7103;54.300;10.180;2023-02-10T01:37:55;0.07;;;0.07;;
14056;SDS011;7103;54.300;10.180;2023-02-10T01:40:26;0.10;;;0.10;;
14056;SDS011;7103;54.300;10.180;2023-02-10T01:42:53;0.00;;;0.00;;
14056;SDS011;7103;54.300;10.180;2023-02-10T01:45:33;0.10;;;0.10;;
14056;SDS011;7103;54.300;10.180;2023-02-10T01:48:01;0.10;;;0.10;;
14056;SDS011;7103;54.300;10.180;2023-02-10T01:50:31;0.00;;;0.00;;
14056;SDS011;7103;54.300;10.180;2023-02-10T01:53:13;0.10;;;0.10;;
14056;SDS011;7103;54.300;10.180;2023-02-10T01:55:43;0.07;;;0.07;;
14056;SDS011;7103;54.300;10.180;2023-02-10T01:58:13;0.10;;;0.10;;
14056;SDS011;7103;54.300;10.180;2023-02-10T02:00:42;0.10;;;0.10;;
14056;SDS011;7103;54.300;10.180;2023-02-10T02:03:10;0.00;;;0.00;;
14056;SDS011;7103;54.300;10.180;2023-02-10T02:05:38;0.10;;;0.10;;
14056;SDS011;7103;54.300;10.180;2023-02-10T02:08:11;0.10;;;0.10;;
14056;SDS011;7103;54.300;10.180;2023-02-10T02:21:57;0.10;;;0.10;;
14056;SDS011;7103;54.300;10.180;2023-02-10T02:25:07;0.10;;;0.10;;
14056;SDS011;7103;54.300;10.180;2023-02-10T02:27:44;0.00;;;0.00;;
14056;SDS011;7103;54.300;10.180;2023-02-10T02:33:24;0.10;;;0.10;;
14056;SDS011;7103;54.300;10.180;2023-02-10T02:39:01;0.10;;;0.10;;
14056;SDS011;7103;54.300;10.180;2023-02-10T02:41:30;0.20;;;0.20;;
14056;SDS011;7103;54.300;10.180;2023-02-10T02:43:58;0.10;;;0.10;;
14056;SDS011;7103;54.300;10.180;2023-02-10T02:49:26;0.10;;;0.10;;
14056;SDS011;7103;54.300;10.180;2023-02-10T02:52:05;0.10;;;0.10;;
14056;SDS011;7103;54.300;10.180;2023-02-10T02:54:57;0.10;;;0.10;;
14056;SDS011;7103;54.300;10.180;2023-02-10T02:57:48;0.00;;;0.00;;
14056;SDS011;7103;54.300;10.180;2023-02-10T03:00:19;0.10;;;0.10;;
14056;SDS011;7103;54.300;10.180;2023-02-10T03:02:50;0.10;;;0.10;;
14056;SDS011;7103;54.300;10.180;2023-02-10T03:05:19;0.10;;;0.10;;
14056;SDS011;7103;54.300;10.180;2023-02-10T03:07:48;0.10;;;0.10;;
14056;SDS011;7103;54.300;10.180;2023-02-10T03:10:15;0.10;;;0.10;;
14056;SDS011;7103;54.300;10.180;2023-02-10T03:12:42;0.20;;;0.20;;
14056;SDS011;7103;54.300;10.180;2023-02-10T03:15:09;0.20;;;0.20;;
14056;SDS011;7103;54.300;10.180;2023-02-10T03:17:37;0.10;;;0.10;;
14056;SDS011;7103;54.300;10.180;2023-02-10T03:20:05;0.10;;;0.10;;
14056;SDS011;7103;54.300;10.180;2023-02-10T03:22:32;0.10;;;0.10;;
14056;SDS011;7103;54.300;10.180;2023-02-10T03:24:59;0.10;;;0.10;;
14056;SDS011;7103;54.300;10.180;2023-02-10T03:27:26;0.10;;;0.10;;
14056;SDS011;7103;54.300;10.180;2023-02-10T03:29:53;0.10;;;0.10;;
14056;SDS011;7103;54.300;10.180;2023-02-10T03:32:20;0.20;;;0.20;;
14056;SDS011;7103;54.300;10.180;2023-02-10T03:34:47;0.10;;;0.10;;
14056;SDS011;7103;54.300;10.180;2023-02-10T03:37:14;0.10;;;0.10;;
14056;SDS011;7103;54.300;10.180;2023-02-10T03:39:40;0.10;;;0.10;;
14056;SDS011;7103;54.300;10.180;2023-02-10T03:42:07;0.10;;;0.10;;
14056;SDS011;7103;54.300;10.180;2023-02-10T03:44:34;0.20;;;0.20;;
14056;SDS011;7103;54.300;10.180;2023-02-10T03:47:01;0.10;;;0.10;;
14056;SDS011;7103;54.300;10.180;2023-02-10T03:49:28;0.10;;;0.10;;
14056;SDS011;7103;54.300;10.180;2023-02-10T03:51:55;0.10;;;0.10;;
14056;SDS011;7103;54.300;10.180;2023-02-10T03:54:22;0.10;;;0.10;;
14056;SDS011;7103;54.300;10.180;2023-02-10T03:56:48;0.10;;;0.10;;
14056;SDS011;7103;54.300;10.180;2023-02-10T03:59:15;0.10;;;0.10;;
14056;SDS011;7103;54.300;10.180;2023-02-10T04:01:42;0.10;;;0.10;;
14056;SDS011;7103;54.300;10.180;2023-02-10T04:04:09;0.10;;;0.10;;
14056;SDS011;7103;54.300;10.180;2023-02-10T04:06:36;0.10;;;0.10;;
14056;SDS011;7103;54.300;10.180;2023-02-10T04:09:03;0.10;;;0.10;;
14056;SDS011;7103;54.300;10.180;2023-02-10T04:11:30;0.10;;;0.10;;
14056;SDS011;7103;54.300;10.180;2023-02-10T04:13:56;0.20;;;0.20;;
14056;SDS011;7103;54.300;10.180;2023-02-10T04:16:23;0.10;;;0.10;;
14056;SDS011;7103;54.300;10.180;2023-02-10T04:18:54;0.10;;;0.10;;
14056;SDS011;7103;54.300;10.180;2023-02-10T04:21:21;0.10;;;0.10;;
14056;SDS011;7103;54.300;10.180;2023-02-10T04:23:47;0.10;;;0.10;;
14056;SDS011;7103;54.300;10.180;2023-02-10T04:26:14;0.10;;;0.10;;
14056;SDS011;7103;54.300;10.180;2023-02-10T04:28:41;0.10;;;0.10;;
14056;SDS011;7103;54.300;10.180;2023-02-10T04:31:08;0.10;;;0.10;;
14056;SDS011;7103;54.300;10.180;2023-02-10T04:33:36;0.10;;;0.10;;
14056;SDS011;7103;54.300;10.180;2023-02-10T04:36:03;0.10;;;0.10;;
14056;SDS011;7103;54.300;10.180;2023-02-10T04:38:30;0.10;;;0.10;;
14056;SDS011;7103;54.300;10.180;2023-02-10T04:40:57;0.10;;;0.10;;
14056;SDS011;7103;54.300;10.180;2023-02-10T04:43:24;0.10;;;0.10;;
14056;SDS011;7103;54.300;10.180;2023-02-10T04:45:51;0.10;;;0.10;;
14056;SDS011;7103;54.300;10.180;2023-02-10T04:48:17;0.10;;;0.10;;
14056;SDS011;7103;54.300;10.180;2023-02-10T04:50:46;0.10;;;0.10;;
14056;SDS011;7103;54.300;10.180;2023-02-10T04:53:13;0.10;;;0.10;;
14056;SDS011;7103;54.300;10.180;2023-02-10T04:55:40;0.10;;;0.10;;
14056;SDS011;7103;54.300;10.180;2023-02-10T04:58:06;0.10;;;0.10;;
14056;SDS011;7103;54.300;10.180;2023-02-10T05:00:33;0.10;;;0.10;;
14056;SDS011;7103;54.300;10.180;2023-02-10T05:03:00;0.10;;;0.10;;
14056;SDS011;7103;54.300;10.180;2023-02-10T05:05:27;0.10;;;0.10;;
14056;SDS011;7103;54.300;10.180;2023-02-10T05:07:54;0.10;;;0.10;;
14056;SDS011;7103;54.300;10.180;2023-02-10T05:10:21;0.10;;;0.10;;
14056;SDS011;7103;54.300;10.180;2023-02-10T05:12:48;0.10;;;0.10;;
14056;SDS011;7103;54.300;10.180;2023-02-10T05:15:15;0.10;;;0.10;;
14056;SDS011;7103;54.300;10.180;2023-02-10T05:17:42;0.13;;;0.13;;
14056;SDS011;7103;54.300;10.180;2023-02-10T05:20:09;0.10;;;0.10;;
14056;SDS011;7103;54.300;10.180;2023-02-10T05:22:36;0.10;;;0.10;;
14056;SDS011;7103;54.300;10.180;2023-02-10T05:25:04;0.10;;;0.10;;
14056;SDS011;7103;54.300;10.180;2023-02-10T05:27:33;0.10;;;0.10;;
14056;SDS011;7103;54.300;10.180;2023-02-10T05:30:02;0.00;;;0.00;;
14056;SDS011;7103;54.300;10.180;2023-02-10T05:32:30;0.00;;;0.00;;
14056;SDS011;7103;54.300;10.180;2023-02-10T05:34:57;0.10;;;0.10;;
14056;SDS011;7103;54.300;10.180;2023-02-10T05:37:24;0.10;;;0.10;;
14056;SDS011;7103;54.300;10.180;2023-02-10T05:39:51;0.10;;;0.10;;
14056;SDS011;7103;54.300;10.180;2023-02-10T05:42:17;0.10;;;0.10;;
14056;SDS011;7103;54.300;10.180;2023-02-10T05:44:44;0.10;;;0.10;;
14056;SDS011;7103;54.300;10.180;2023-02-10T05:47:11;0.10;;;0.10;;
14056;SDS011;7103;54.300;10.180;2023-02-10T05:49:38;0.10;;;0.10;;
14056;SDS011;7103;54.300;10.180;2023-02-10T05:52:05;0.10;;;0.10;;
14056;SDS011;7103;54.300;10.180;2023-02-10T05:54:34;0.10;;;0.10;;
14056;SDS011;7103;54.300;10.180;2023-02-10T05:57:01;0.10;;;0.10;;
14056;SDS011;7103;54.300;10.180;2023-02-10T05:59:28;0.10;;;0.10;;
14056;SDS011;7103;54.300;10.180;2023-02-10T06:01:55;0.10;;;0.10;;
14056;SDS011;7103;54.300;10.180;2023-02-10T06:04:22;0.10;;;0.10;;
14056;SDS011;7103;54.300;10.180;2023-02-10T06:06:49;0.10;;;0.10;;
14056;SDS011;7103;54.300;10.180;2023-02-10T06:09:16;0.00;;;0.00;;
14056;SDS011;7103;54.300;10.180;2023-02-10T06:11:43;0.00;;;0.00;;
14056;SDS011;7103;54.300;10.180;2023-02-10T06:14:10;0.10;;;0.10;;
14056;SDS011;7103;54.300;10.180;2023-02-10T06:16:37;0.10;;;0.10;;
14056;SDS011;7103;54.300;10.180;2023-02-10T06:19:04;0.10;;;0.10;;
14056;SDS011;7103;54.300;10.180;2023-02-10T06:21:31;0.03;;;0.03;;
14056;SDS011;7103;54.300;10.180;2023-02-10T06:23:58;0.10;;;0.10;;
14056;SDS011;7103;54.300;10.180;2023-02-10T06:26:24;0.10;;;0.10;;
14056;SDS011;7103;54.300;10.180;2023-02-10T06:28:54;0.00;;;0.00;;
14056;SDS011;7103;54.300;10.180;2023-02-10T06:31:22;0.10;;;0.10;;
14056;SDS011;7103;54.300;10.180;2023-02-10T06:33:50;0.10;;;0.10;;
14056;SDS011;7103;54.300;10.180;2023-02-10T06:36:17;0.10;;;0.10;;
14056;SDS011;7103;54.300;10.180;2023-02-10T06:38:43;0.10;;;0.10;;
14056;SDS011;7103;54.300;10.180;2023-02-10T06:41:10;0.00;;;0.00;;
14056;SDS011;7103;54.300;10.180;2023-02-10T06:43:37;0.10;;;0.10;;
14056;SDS011;7103;54.300;10.180;2023-02-10T06:46:04;0.10;;;0.10;;
14056;SDS011;7103;54.300;10.180;2023-02-10T06:48:31;0.00;;;0.00;;
14056;SDS011;7103;54.300;10.180;2023-02-10T06:50:58;0.10;;;0.10;;
14056;SDS011;7103;54.300;10.180;2023-02-10T06:53:25;0.10;;;0.10;;
14056;SDS011;7103;54.300;10.180;2023-02-10T06:55:55;0.10;;;0.10;;
14056;SDS011;7103;54.300;10.180;2023-02-10T06:58:22;0.10;;;0.10;;
14056;SDS011;7103;54.300;10.180;2023-02-10T07:00:49;0.00;;;0.00;;
14056;SDS011;7103;54.300;10.180;2023-02-10T07:03:16;0.10;;;0.10;;
14056;SDS011;7103;54.300;10.180;2023-02-10T07:05:43;0.10;;;0.10;;
14056;SDS011;7103;54.300;10.180;2023-02-10T07:08:10;0.00;;;0.00;;
14056;SDS011;7103;54.300;10.180;2023-02-10T07:10:37;0.03;;;0.03;;
14056;SDS011;7103;54.300;10.180;2023-02-10T07:13:04;0.10;;;0.10;;
14056;SDS011;7103;54.300;10.180;2023-02-10T07:15:31;0.10;;;0.10;;
14056;SDS011;7103;54.300;10.180;2023-02-10T07:17:58;0.10;;;0.10;;
14056;SDS011;7103;54.300;10.180;2023-02-10T07:20:25;0.10;;;0.10;;
14056;SDS011;7103;54.300;10.180;2023-02-10T07:22:52;0.00;;;0.00;;
14056;SDS011;7103;54.300;10.180;2023-02-10T07:25:19;0.10;;;0.10;;
14056;SDS011;7103;54.300;10.180;2023-02-10T07:27:46;0.10;;;0.10;;
14056;SDS011;7103;54.300;10.180;2023-02-10T07:30:13;0.10;;;0.10;;
14056;SDS011;7103;54.300;10.180;2023-02-10T07:32:40;0.10;;;0.10;;
14056;SDS011;7103;54.300;10.180;2023-02-10T07:35:08;0.10;;;0.10;;
14056;SDS011;7103;54.300;10.180;2023-02-10T07:37:35;0.10;;;0.10;;
14056;SDS011;7103;54.300;10.180;2023-02-10T07:40:03;0.10;;;0.10;;
14056;SDS011;7103;54.300;10.180;2023-02-10T07:42:31;0.00;;;0.00;;
14056;SDS011;7103;54.300;10.180;2023-02-10T07:45:01;0.10;;;0.10;;
14056;SDS011;7103;54.300;10.180;2023-02-10T07:47:28;0.10;;;0.10;;
14056;SDS011;7103;54.300;10.180;2023-02-10T07:49:55;0.10;;;0.10;;
14056;SDS011;7103;54.300;10.180;2023-02-10T07:52:22;0.10;;;0.10;;
14056;SDS011;7103;54.300;10.180;2023-02-10T07:54:49;0.10;;;0.10;;
14056;SDS011;7103;54.300;10.180;2023-02-10T07:57:16;0.00;;;0.00;;
14056;SDS011;7103;54.300;10.180;2023-02-10T07:59:43;0.10;;;0.10;;
14056;SDS011;7103;54.300;10.180;2023-02-10T08:02:10;0.10;;;0.10;;
14056;SDS011;7103;54.300;10.180;2023-02-10T08:04:37;0.13;;;0.13;;
14056;SDS011;7103;54.300;10.180;2023-02-10T08:07:04;0.07;;;0.07;;
14056;SDS011;7103;54.300;10.180;2023-02-10T08:09:31;0.10;;;0.10;;
14056;SDS011;7103;54.300;10.180;2023-02-10T08:11:58;0.10;;;0.10;;
14056;SDS011;7103;54.300;10.180;2023-02-10T08:14:25;0.10;;;0.10;;
14056;SDS011;7103;54.300;10.180;2023-02-10T08:16:52;0.00;;;0.00;;
14056;SDS011;7103;54.300;10.180;2023-02-10T08:19:19;0.10;;;0.10;;
14056;SDS011;7103;54.300;10.180;2023-02-10T08:21:46;0.10;;;0.10;;
14056;SDS011;7103;54.300;10.180;2023-02-10T08:24:13;0.10;;;0.10;;
14056;SDS011;7103;54.300;10.180;2023-02-10T08:26:40;0.00;;;0.00;;
14056;SDS011;7103;54.300;10.180;2023-02-10T08:29:08;0.10;;;0.10;;
14056;SDS011;7103;54.300;10.180;2023-02-10T08:31:35;0.10;;;0.10;;
14056;SDS011;7103;54.300;10.180;2023-02-10T08:34:02;0.10;;;0.10;;
14056;SDS011;7103;54.300;10.180;2023-02-10T08:36:36;0.10;;;0.10;;
14056;SDS011;7103;54.300;10.180;2023-02-10T08:39:03;0.10;;;0.10;;
14056;SDS011;7103;54.300;10.180;2023-02-10T08:41:30;0.00;;;0.00;;
14056;SDS011;7103;54.300;10.180;2023-02-10T08:43:57;0.00;;;0.00;;
14056;SDS011;7103;54.300;10.180;2023-02-10T08:46:24;0.00;;;0.00;;
14056;SDS011;7103;54.300;10.180;2023-02-10T08:48:52;0.10;;;0.10;;
14056;SDS011;7103;54.300;10.180;2023-02-10T08:51:19;0.10;;;0.10;;
14056;SDS011;7103;54.300;10.180;2023-02-10T08:53:46;0.10;;;0.10;;
14056;SDS011;7103;54.300;10.180;2023-02-10T08:56:14;0.10;;;0.10;;
14056;SDS011;7103;54.300;10.180;2023-02-10T08:58:43;0.10;;;0.10;;
14056;SDS011;7103;54.300;10.180;2023-02-10T09:01:12;0.10;;;0.10;;
14056;SDS011;7103;54.300;10.180;2023-02-10T09:03:44;0.10;;;0.10;;
14056;SDS011;7103;54.300;10.180;2023-02-10T09:06:12;0.10;;;0.10;;
14056;SDS011;7103;54.300;10.180;2023-02-10T09:08:45;0.10;;;0.10;;
14056;SDS011;7103;54.300;10.180;2023-02-10T09:11:14;0.10;;;0.10;;
14056;SDS011;7103;54.300;10.180;2023-02-10T09:13:42;0.10;;;0.10;;
14056;SDS011;7103;54.300;10.180;2023-02-10T09:16:09;0.10;;;0.10;;
14056;SDS011;7103;54.300;10.180;2023-02-10T09:18:36;0.10;;;0.10;;
14056;SDS011;7103;54.300;10.180;2023-02-10T09:21:03;0.10;;;0.10;;
14056;SDS011;7103;54.300;10.180;2023-02-10T09:23:30;0.10;;;0.10;;
14056;SDS011;7103;54.300;10.180;2023-02-10T09:25:57;0.10;;;0.10;;
14056;SDS011;7103;54.300;10.180;2023-02-10T09:28:26;0.10;;;0.10;;
14056;SDS011;7103;54.300;10.180;2023-02-10T09:30:53;0.10;;;0.10;;
14056;SDS011;7103;54.300;10.180;2023-02-10T09:33:20;0.10;;;0.10;;
14056;SDS011;7103;54.300;10.180;2023-02-10T09:35:47;0.10;;;0.10;;
14056;SDS011;7103;54.300;10.180;2023-02-10T09:38:15;0.10;;;0.10;;
14056;SDS011;7103;54.300;10.180;2023-02-10T09:40:55;0.10;;;0.10;;
14056;SDS011;7103;54.300;10.180;2023-02-10T09:46:07;0.10;;;0.10;;
14056;SDS011;7103;54.300;10.180;2023-02-10T09:48:52;0.10;;;0.10;;
14056;SDS011;7103;54.300;10.180;2023-02-10T09:51:35;0.10;;;0.10;;
14056;SDS011;7103;54.300;10.180;2023-02-10T09:54:23;0.10;;;0.10;;
14056;SDS011;7103;54.300;10.180;2023-02-10T09:56:50;0.10;;;0.10;;
14056;SDS011;7103;54.300;10.180;2023-02-10T09:59:19;0.10;;;0.10;;
14056;SDS011;7103;54.300;10.180;2023-02-10T10:01:52;0.10;;;0.10;;
14056;SDS011;7103;54.300;10.180;2023-02-10T10:04:24;0.10;;;0.10;;
14056;SDS011;7103;54.300;10.180;2023-02-10T10:07:03;0.20;;;0.20;;
14056;SDS011;7103;54.300;10.180;2023-02-10T10:09:56;0.10;;;0.10;;
14056;SDS011;7103;54.300;10.180;2023-02-10T10:12:29;0.10;;;0.10;;
14056;SDS011;7103;54.300;10.180;2023-02-10T10:14:56;0.10;;;0.10;;
14056;SDS011;7103;54.300;10.180;2023-02-10T10:22:51;0.17;;;0.17;;
14056;SDS011;7103;54.300;10.180;2023-02-10T10:25:43;0.20;;;0.20;;
14056;SDS011;7103;54.300;10.180;2023-02-10T10:28:54;0.10;;;0.10;;
14056;SDS011;7103;54.300;10.180;2023-02-10T10:31:30;0.10;;;0.10;;
14056;SDS011;7103;54.300;10.180;2023-02-10T10:36:49;0.10;;;0.10;;
14056;SDS011;7103;54.300;10.180;2023-02-10T10:41:55;0.10;;;0.10;;
14056;SDS011;7103;54.300;10.180;2023-02-10T10:44:23;0.10;;;0.10;;
14056;SDS011;7103;54.300;10.180;2023-02-10T10:46:56;0.10;;;0.10;;
14056;SDS011;7103;54.300;10.180;2023-02-10T10:49:35;0.10;;;0.10;;
14056;SDS011;7103;54.300;10.180;2023-02-10T10:52:04;0.20;;;0.20;;
14056;SDS011;7103;54.300;10.180;2023-02-10T10:54:55;0.10;;;0.10;;
14056;SDS011;7103;54.300;10.180;2023-02-10T10:57:22;0.10;;;0.10;;
14056;SDS011;7103;54.300;10.180;2023-02-10T10:59:54;0.10;;;0.10;;
14056;SDS011;7103;54.300;10.180;2023-02-10T11:02:27;0.10;;;0.10;;
14056;SDS011;7103;54.300;10.180;2023-02-10T11:05:04;0.20;;;0.20;;
14056;SDS011;7103;54.300;10.180;2023-02-10T11:07:37;0.20;;;0.20;;
14056;SDS011;7103;54.300;10.180;2023-02-10T11:10:06;0.10;;;0.10;;
14056;SDS011;7103;54.300;10.180;2023-02-10T11:12:45;0.20;;;0.20;;
14056;SDS011;7103;54.300;10.180;2023-02-10T11:17:57;0.20;;;0.20;;
14056;SDS011;7103;54.300;10.180;2023-02-10T11:20:27;0.20;;;0.20;;
14056;SDS011;7103;54.300;10.180;2023-02-10T11:23:10;0.20;;;0.20;;
14056;SDS011;7103;54.300;10.180;2023-02-10T11:25:40;0.20;;;0.20;;
14056;SDS011;7103;54.300;10.180;2023-02-10T11:28:16;0.20;;;0.20;;
14056;SDS011;7103;54.300;10.180;2023-02-10T11:30:46;0.30;;;0.30;;
14056;SDS011;7103;54.300;10.180;2023-02-10T11:33:25;0.20;;;0.20;;
14056;SDS011;7103;54.300;10.180;2023-02-10T11:36:04;0.20;;;0.20;;
14056;SDS011;7103;54.300;10.180;2023-02-10T11:38:34;0.20;;;0.20;;
14056;SDS011;7103;54.300;10.180;2023-02-10T11:41:03;0.20;;;0.20;;
14056;SDS011;7103;54.300;10.180;2023-02-10T11:43:36;0.10;;;0.10;;
14056;SDS011;7103;54.300;10.180;2023-02-10T11:46:07;0.20;;;0.20;;
14056;SDS011;7103;54.300;10.180;2023-02-10T11:48:52;0.10;;;0.10;;
14056;SDS011;7103;54.300;10.180;2023-02-10T11:51:24;0.20;;;0.20;;
14056;SDS011;7103;54.300;10.180;2023-02-10T11:53:52;0.20;;;0.20;;
14056;SDS011;7103;54.300;10.180;2023-02-10T12:02:23;0.20;;;0.20;;
14056;SDS011;7103;54.300;10.180;2023-02-10T12:08:12;0.20;;;0.20;;
14056;SDS011;7103;54.300;10.180;2023-02-10T12:13:37;0.20;;;0.20;;
14056;SDS011;7103;54.300;10.180;2023-02-10T12:19:23;0.20;;;0.20;;
14056;SDS011;7103;54.300;10.180;2023-02-10T12:27:19;0.10;;;0.10;;
14056;SDS011;7103;54.300;10.180;2023-02-10T12:38:49;0.10;;;0.10;;
14056;SDS011;7103;54.300;10.180;2023-02-10T12:41:47;0.13;;;0.13;;
14056;SDS011;7103;54.300;10.180;2023-02-10T12:50:17;0.20;;;0.20;;
14056;SDS011;7103;54.300;10.180;2023-02-10T12:52:58;0.20;;;0.20;;
14056;SDS011;7103;54.300;10.180;2023-02-10T12:58:13;0.20;;;0.20;;
14056;SDS011;7103;54.300;10.180;2023-02-10T13:00:46;0.20;;;0.20;;
14056;SDS011;7103;54.300;10.180;2023-02-10T13:03:37;0.10;;;0.10;;
14056;SDS011;7103;54.300;10.180;2023-02-10T13:12:13;0.20;;;0.20;;
14056;SDS011;7103;54.300;10.180;2023-02-10T13:14:53;0.20;;;0.20;;
14056;SDS011;7103;54.300;10.180;2023-02-10T13:17:29;0.20;;;0.20;;
14056;SDS011;7103;54.300;10.180;2023-02-10T13:28:35;0.10;;;0.10;;
14056;SDS011;7103;54.300;10.180;2023-02-10T13:31:14;0.13;;;0.13;;
14056;SDS011;7103;54.300;10.180;2023-02-10T13:34:18;0.20;;;0.20;;
14056;SDS011;7103;54.300;10.180;2023-02-10T13:37:36;0.10;;;0.10;;
14056;SDS011;7103;54.300;10.180;2023-02-10T13:39:46;0.20;;;0.20;;
14056;SDS011;7103;54.300;10.180;2023-02-10T13:42:27;0.10;;;0.10;;
14056;SDS011;7103;54.300;10.180;2023-02-10T13:44:59;0.10;;;0.10;;
14056;SDS011;7103;54.300;10.180;2023-02-10T13:47:51;0.10;;;0.10;;
14056;SDS011;7103;54.300;10.180;2023-02-10T13:50:30;0.20;;;0.20;;
14056;SDS011;7103;54.300;10.180;2023-02-10T13:58:51;0.20;;;0.20;;
14056;SDS011;7103;54.300;10.180;2023-02-10T14:01:34;0.20;;;0.20;;
14056;SDS011;7103;54.300;10.180;2023-02-10T14:06:46;0.10;;;0.10;;
14056;SDS011;7103;54.300;10.180;2023-02-10T14:09:21;0.20;;;0.20;;
14056;SDS011;7103;54.300;10.180;2023-02-10T14:11:58;0.30;;;0.30;;
14056;SDS011;7103;54.300;10.180;2023-02-10T14:14:34;0.20;;;0.20;;
14056;SDS011;7103;54.300;10.180;2023-02-10T14:17:13;0.20;;;0.20;;
14056;SDS011;7103;54.300;10.180;2023-02-10T14:19:48;0.20;;;0.20;;
14056;SDS011;7103;54.300;10.180;2023-02-10T14:22:22;0.20;;;0.20;;
14056;SDS011;7103;54.300;10.180;2023-02-10T14:24:49;0.20;;;0.20;;
14056;SDS011;7103;54.300;10.180;2023-02-10T14:27:18;0.30;;;0.30;;
14056;SDS011;7103;54.300;10.180;2023-02-10T14:29:56;0.20;;;0.20;;
14056;SDS011;7103;54.300;10.180;2023-02-10T14:32:28;0.20;;;0.20;;
14056;SDS011;7103;54.300;10.180;2023-02-10T14:34:58;0.10;;;0.10;;
14056;SDS011;7103;54.300;10.180;2023-02-10T14:37:27;0.20;;;0.20;;
14056;SDS011;7103;54.300;10.180;2023-02-10T14:39:58;0.10;;;0.10;;
14056;SDS011;7103;54.300;10.180;2023-02-10T14:42:27;0.20;;;0.20;;
14056;SDS011;7103;54.300;10.180;2023-02-10T14:44:58;0.30;;;0.30;;
14056;SDS011;7103;54.300;10.180;2023-02-10T14:47:29;0.27;;;0.27;;
14056;SDS011;7103;54.300;10.180;2023-02-10T14:49:59;0.20;;;0.20;;
14056;SDS011;7103;54.300;10.180;2023-02-10T14:52:34;0.20;;;0.20;;
14056;SDS011;7103;54.300;10.180;2023-02-10T15:00:31;0.20;;;0.20;;
14056;SDS011;7103;54.300;10.180;2023-02-10T15:03:00;0.30;;;0.30;;
14056;SDS011;7103;54.300;10.180;2023-02-10T15:05:38;0.30;;;0.30;;
14056;SDS011;7103;54.300;10.180;2023-02-10T15:08:17;0.20;;;0.20;;
14056;SDS011;7103;54.300;10.180;2023-02-10T15:10:51;0.20;;;0.20;;
14056;SDS011;7103;54.300;10.180;2023-02-10T15:13:21;0.30;;;0.30;;
14056;SDS011;7103;54.300;10.180;2023-02-10T15:15:53;0.20;;;0.20;;
14056;SDS011;7103;54.300;10.180;2023-02-10T15:18:25;0.20;;;0.20;;
14056;SDS011;7103;54.300;10.180;2023-02-10T15:20:59;0.20;;;0.20;;
14056;SDS011;7103;54.300;10.180;2023-02-10T15:23:28;0.20;;;0.20;;
14056;SDS011;7103;54.300;10.180;2023-02-10T15:26:03;0.20;;;0.20;;
14056;SDS011;7103;54.300;10.180;2023-02-10T15:29:02;0.30;;;0.30;;
14056;SDS011;7103;54.300;10.180;2023-02-10T15:31:31;0.20;;;0.20;;
14056;SDS011;7103;54.300;10.180;2023-02-10T15:33:59;0.20;;;0.20;;
14056;SDS011;7103;54.300;10.180;2023-02-10T15:36:50;0.30;;;0.30;;
14056;SDS011;7103;54.300;10.180;2023-02-10T15:39:24;0.20;;;0.20;;
14056;SDS011;7103;54.300;10.180;2023-02-10T15:49:45;0.20;;;0.20;;
14056;SDS011;7103;54.300;10.180;2023-02-10T15:52:16;0.20;;;0.20;;
14056;SDS011;7103;54.300;10.180;2023-02-10T15:54:46;0.30;;;0.30;;
14056;SDS011;7103;54.300;10.180;2023-02-10T15:57:16;0.20;;;0.20;;
14056;SDS011;7103;54.300;10.180;2023-02-10T15:59:44;0.20;;;0.20;;
14056;SDS011;7103;54.300;10.180;2023-02-10T16:02:17;0.20;;;0.20;;
14056;SDS011;7103;54.300;10.180;2023-02-10T16:04:45;0.20;;;0.20;;
14056;SDS011;7103;54.300;10.180;2023-02-10T16:07:22;0.20;;;0.20;;
14056;SDS011;7103;54.300;10.180;2023-02-10T16:09:53;0.20;;;0.20;;
14056;SDS011;7103;54.300;10.180;2023-02-10T16:12:21;0.20;;;0.20;;
14056;SDS011;7103;54.300;10.180;2023-02-10T16:14:48;0.20;;;0.20;;
14056;SDS011;7103;54.300;10.180;2023-02-10T16:17:20;0.20;;;0.20;;
14056;SDS011;7103;54.300;10.180;2023-02-10T16:19:50;0.20;;;0.20;;
14056;SDS011;7103;54.300;10.180;2023-02-10T16:22:17;0.10;;;0.10;;
14056;SDS011;7103;54.300;10.180;2023-02-10T16:24:44;0.20;;;0.20;;
14056;SDS011;7103;54.300;10.180;2023-02-10T16:27:14;0.20;;;0.20;;
14056;SDS011;7103;54.300;10.180;2023-02-10T16:29:41;0.20;;;0.20;;
14056;SDS011;7103;54.300;10.180;2023-02-10T16:32:09;0.20;;;0.20;;
14056;SDS011;7103;54.300;10.180;2023-02-10T16:34:37;0.20;;;0.20;;
14056;SDS011;7103;54.300;10.180;2023-02-10T16:37:04;0.20;;;0.20;;
14056;SDS011;7103;54.300;10.180;2023-02-10T16:39:31;0.20;;;0.20;;
14056;SDS011;7103;54.300;10.180;2023-02-10T16:41:58;0.20;;;0.20;;
14056;SDS011;7103;54.300;10.180;2023-02-10T16:44:25;0.30;;;0.30;;
14056;SDS011;7103;54.300;10.180;2023-02-10T16:46:52;0.20;;;0.20;;
14056;SDS011;7103;54.300;10.180;2023-02-10T16:49:19;0.17;;;0.17;;
14056;SDS011;7103;54.300;10.180;2023-02-10T16:51:46;0.20;;;0.20;;
14056;SDS011;7103;54.300;10.180;2023-02-10T16:54:13;0.13;;;0.13;;
14056;SDS011;7103;54.300;10.180;2023-02-10T16:56:41;0.30;;;0.30;;
14056;SDS011;7103;54.300;10.180;2023-02-10T16:59:11;0.30;;;0.30;;